Time;durP1;ratioP1;P1;durP2;ratioP2;P2;SDS_P1;SDS_P2;PMS_P1;PMS_P2;Temp;Humidity;BMP_temperature;BMP_pressure;BME280_temperature;BME280_humidity;BME280_pressure;Samples;Min_cycle;Max_cycle;Signal;HPM_P1;HPM_P2
2021/06/26 00:01:26;;;;;;;2.78;1.48;;;17.90;99.90;;;;;;5033449;28;20095;-74
2021/06/26 00:03:52;;;;;;;3.95;1.55;;;17.90;99.90;;;;;;5033883;28;20026;-73
2021/06/26 00:06:18;;;;;;;5.28;1.40;;;17.70;99.90;;;;;;5033677;28;20040;-74
2021/06/26 00:08:44;;;;;;;3.75;1.45;;;17.80;99.90;;;;;;5033111;28;20064;-74
2021/06/26 00:11:09;;;;;;;4.15;2.00;;;17.70;99.90;;;;;;5033178;28;20025;-74
2021/06/26 00:13:35;;;;;;;2.78;1.30;;;17.70;99.90;;;;;;5033272;28;20551;-74
2021/06/26 00:16:01;;;;;;;3.55;1.27;;;17.60;99.90;;;;;;5033354;28;20074;-74
2021/06/26 00:18:27;;;;;;;2.78;1.33;;;17.70;99.90;;;;;;5032885;28;20129;-74
2021/06/26 00:20:52;;;;;;;3.67;1.55;;;17.70;99.90;;;;;;5033073;28;20041;-74
2021/06/26 00:23:18;;;;;;;2.65;1.25;;;17.70;99.90;;;;;;5033253;28;20045;-73
2021/06/26 00:25:44;;;;;;;2.83;1.23;;;17.50;99.90;;;;;;5033151;28;20483;-74
2021/06/26 00:28:10;;;;;;;3.33;1.50;;;17.60;99.90;;;;;;5032656;28;20022;-73
2021/06/26 00:30:35;;;;;;;3.88;1.50;;;17.50;99.90;;;;;;5031319;28;20485;-74
2021/06/26 00:33:01;;;;;;;3.60;1.63;;;17.30;99.90;;;;;;5033164;28;20075;-74
2021/06/26 00:35:27;;;;;;;3.90;1.40;;;17.40;99.90;;;;;;5032742;28;20148;-73
2021/06/26 00:37:53;;;;;;;3.15;1.50;;;17.20;99.90;;;;;;5032522;28;20505;-74
2021/06/26 00:40:19;;;;;;;4.18;1.67;;;17.30;99.90;;;;;;5032586;28;20049;-74
2021/06/26 00:42:45;;;;;;;2.67;1.30;;;17.30;99.90;;;;;;5033220;28;20037;-73
2021/06/26 00:45:13;;;;;;;2.83;1.60;;;17.20;99.90;;;;;;5032469;28;20080;-74
2021/06/26 00:47:40;;;;;;;2.88;1.08;;;17.30;99.90;;;;;;5032120;28;20041;-74
2021/06/26 00:50:17;;;;;;;2.88;1.40;;;17.10;99.90;;;;;;5032281;28;20379;-74
2021/06/26 00:52:43;;;;;;;1.90;1.00;;;17.00;99.90;;;;;;5032891;28;20025;-74
2021/06/26 00:55:10;;;;;;;4.32;1.45;;;17.20;99.90;;;;;;5032513;28;20030;-74
2021/06/26 00:57:36;;;;;;;2.83;1.60;;;17.20;99.90;;;;;;5032059;28;20414;-74
2021/06/26 01:00:06;;;;;;;2.47;1.17;;;17.10;99.90;;;;;;5031725;28;20108;-73
2021/06/26 01:02:31;;;;;;;3.30;1.25;;;16.90;99.90;;;;;;5032885;28;20034;-74
2021/06/26 01:04:57;;;;;;;5.32;1.70;;;17.00;99.90;;;;;;5032293;28;20044;-74
2021/06/26 01:07:23;;;;;;;2.67;1.17;;;17.00;99.90;;;;;;5031746;28;20026;-73
2021/06/26 01:09:48;;;;;;;10.32;1.30;;;17.00;99.90;;;;;;5031892;28;20041;-74
2021/06/26 01:12:14;;;;;;;3.60;1.20;;;17.20;99.90;;;;;;5032073;28;20040;-74
2021/06/26 01:14:40;;;;;;;3.35;1.20;;;17.20;99.90;;;;;;5032371;28;20489;-74
2021/06/26 01:17:09;;;;;;;2.22;1.02;;;17.20;99.90;;;;;;5031502;28;20037;-74
2021/06/26 01:19:35;;;;;;;3.85;1.13;;;17.20;99.90;;;;;;5031966;28;20036;-75
2021/06/26 01:22:05;;;;;;;4.78;1.52;;;17.20;99.90;;;;;;5031959;28;20041;-73
2021/06/26 01:24:31;;;;;;;2.38;0.93;;;17.30;99.80;;;;;;5031741;28;20053;-74
2021/06/26 01:27:00;;;;;;;1.33;0.73;;;17.50;99.70;;;;;;5031808;28;20057;-74
2021/06/26 01:29:26;;;;;;;3.28;1.00;;;17.60;99.20;;;;;;5031410;28;20077;-74
2021/06/26 01:31:52;;;;;;;2.63;1.20;;;17.60;99.40;;;;;;5031385;28;20108;-73
2021/06/26 01:34:18;;;;;;;2.50;0.70;;;17.70;98.90;;;;;;5032067;28;20587;-74
2021/06/26 01:36:44;;;;;;;4.65;1.05;;;17.80;98.70;;;;;;5031666;28;20399;-74
2021/06/26 01:39:10;;;;;;;1.90;0.75;;;17.80;98.90;;;;;;5031499;28;20029;-74
2021/06/26 01:41:35;;;;;;;2.85;1.15;;;17.50;99.40;;;;;;5031812;28;20038;-74
2021/06/26 01:44:02;;;;;;;2.03;0.90;;;17.40;99.70;;;;;;5031706;28;20017;-74
2021/06/26 01:46:28;;;;;;;2.65;1.10;;;17.30;99.90;;;;;;5031825;28;20061;-74
2021/06/26 01:49:05;;;;;;;3.47;1.13;;;17.10;99.90;;;;;;5031070;28;20053;-73
2021/06/26 01:51:32;;;;;;;4.10;1.45;;;17.40;99.50;;;;;;5031966;28;20549;-74
2021/06/26 01:53:58;;;;;;;4.60;1.20;;;17.30;99.50;;;;;;5029791;28;20383;-74
2021/06/26 01:56:23;;;;;;;2.53;1.10;;;17.20;99.90;;;;;;5031494;28;20028;-73
2021/06/26 01:58:49;;;;;;;1.83;0.90;;;17.20;99.90;;;;;;5030697;28;20030;-74
2021/06/26 02:01:15;;;;;;;5.68;0.90;;;17.10;99.90;;;;;;5031815;28;20359;-73
2021/06/26 02:03:40;;;;;;;2.00;0.88;;;17.00;99.90;;;;;;5031024;28;20128;-74
2021/06/26 02:06:06;;;;;;;2.42;1.13;;;17.20;99.90;;;;;;5031279;28;20025;-73
2021/06/26 02:08:32;;;;;;;2.63;0.82;;;17.20;99.80;;;;;;5031742;28;20029;-74
2021/06/26 02:10:58;;;;;;;2.78;1.02;;;17.10;99.70;;;;;;5031369;28;20384;-73
2021/06/26 02:13:23;;;;;;;1.48;0.70;;;17.20;99.60;;;;;;5027027;28;20121;-74
2021/06/26 02:15:49;;;;;;;2.63;1.20;;;17.10;99.70;;;;;;5026477;28;20067;-73
2021/06/26 02:18:15;;;;;;;3.88;0.95;;;17.50;99.10;;;;;;5031245;28;20022;-74
2021/06/26 02:20:40;;;;;;;4.30;1.20;;;17.60;98.80;;;;;;5031316;28;20065;-74
2021/06/26 02:23:06;;;;;;;2.63;0.80;;;17.60;98.70;;;;;;5031304;28;20029;-73
2021/06/26 02:25:32;;;;;;;3.90;1.00;;;17.60;98.60;;;;;;5030290;28;20100;-75
2021/06/26 02:27:57;;;;;;;5.35;1.20;;;17.70;98.60;;;;;;5031208;28;20479;-73
2021/06/26 02:30:23;;;;;;;2.83;0.75;;;17.60;98.80;;;;;;5031150;28;20357;-73
2021/06/26 02:32:49;;;;;;;2.95;1.38;;;17.50;98.80;;;;;;5031575;28;20021;-74
2021/06/26 02:35:14;;;;;;;1.83;0.93;;;17.60;98.60;;;;;;5030324;28;20365;-74
2021/06/26 02:37:40;;;;;;;2.75;1.08;;;17.60;98.60;;;;;;5034024;28;20041;-74
2021/06/26 02:40:07;;;;;;;1.42;0.73;;;17.50;98.80;;;;;;5030053;28;20061;-74
2021/06/26 02:42:33;;;;;;;2.55;1.20;;;17.50;98.80;;;;;;5015727;28;20400;-74
2021/06/26 02:44:58;;;;;;;2.60;0.93;;;17.50;98.80;;;;;;5025249;28;20026;-73
2021/06/26 02:47:24;;;;;;;2.53;1.10;;;17.40;99.00;;;;;;5034681;28;20022;-74
2021/06/26 02:49:50;;;;;;;2.30;0.85;;;17.40;99.10;;;;;;5034641;28;20029;-73
2021/06/26 02:52:16;;;;;;;2.83;1.40;;;17.30;99.20;;;;;;5034761;28;20029;-74
2021/06/26 02:54:43;;;;;;;2.78;1.40;;;17.20;99.30;;;;;;5034870;28;20032;-75
2021/06/26 02:57:08;;;;;;;2.47;0.77;;;17.00;99.60;;;;;;5034716;28;20033;-73
2021/06/26 02:59:34;;;;;;;3.92;1.45;;;17.00;99.50;;;;;;5030218;28;20045;-73
2021/06/26 03:02:00;;;;;;;5.03;1.05;;;17.00;99.60;;;;;;5031628;28;20372;-73
2021/06/26 03:04:25;;;;;;;1.48;0.80;;;17.00;99.60;;;;;;5025297;28;20037;-74
2021/06/26 03:06:51;;;;;;;1.55;0.80;;;17.00;99.40;;;;;;5027952;28;20026;-74
2021/06/26 03:09:17;;;;;;;1.95;1.00;;;17.10;99.30;;;;;;5028234;28;20542;-74
2021/06/26 03:11:42;;;;;;;1.48;0.75;;;17.20;99.20;;;;;;5027446;28;20041;-75
2021/06/26 03:14:08;;;;;;;2.40;0.73;;;17.20;99.20;;;;;;5028008;28;20037;-74
2021/06/26 03:16:34;;;;;;;1.52;0.77;;;17.10;99.40;;;;;;5027117;28;20033;-74
2021/06/26 03:19:00;;;;;;;3.30;1.33;;;17.00;99.50;;;;;;5028042;28;20051;-74
2021/06/26 03:21:25;;;;;;;2.85;1.17;;;17.20;99.30;;;;;;5026985;28;20040;-75
2021/06/26 03:23:51;;;;;;;2.05;1.02;;;16.80;99.80;;;;;;5027636;28;20471;-74
2021/06/26 03:26:17;;;;;;;1.98;0.95;;;16.50;99.90;;;;;;5026957;28;20037;-75
2021/06/26 03:28:44;;;;;;;6.43;1.33;;;16.60;99.90;;;;;;5028143;28;20033;-75
2021/06/26 03:31:10;;;;;;;2.50;1.10;;;16.40;99.90;;;;;;5027924;28;21045;-74
2021/06/26 03:33:37;;;;;;;5.60;1.60;;;16.70;99.90;;;;;;5022635;28;20404;-75
2021/06/26 03:36:03;;;;;;;1.45;0.68;;;16.50;99.90;;;;;;5011820;28;20033;-74
2021/06/26 03:38:29;;;;;;;2.75;1.38;;;16.00;99.90;;;;;;5026833;28;20044;-74
2021/06/26 03:40:54;;;;;;;1.67;0.90;;;15.90;99.90;;;;;;5027554;28;20037;-74
2021/06/26 03:43:20;;;;;;;2.03;1.05;;;15.70;99.90;;;;;;5026426;28;20045;-74
2021/06/26 03:45:46;;;;;;;1.95;1.08;;;15.70;99.90;;;;;;5026854;28;20109;-74
2021/06/26 03:48:12;;;;;;;5.85;1.23;;;15.80;99.90;;;;;;5025867;28;20056;-76
2021/06/26 03:50:39;;;;;;;2.97;1.10;;;15.70;99.90;;;;;;5026756;28;20109;-75
2021/06/26 03:53:05;;;;;;;2.65;1.00;;;15.70;99.90;;;;;;5026670;28;20060;-75
2021/06/26 03:55:30;;;;;;;3.03;0.93;;;15.70;99.90;;;;;;5026752;28;20143;-75
2021/06/26 03:57:56;;;;;;;3.35;1.20;;;15.80;99.90;;;;;;5025992;28;20094;-75
2021/06/26 04:00:22;;;;;;;1.70;0.82;;;15.80;99.90;;;;;;5025882;28;20025;-76
2021/06/26 04:02:48;;;;;;;2.35;0.93;;;15.60;99.90;;;;;;5026955;28;20116;-74
2021/06/26 04:05:13;;;;;;;1.92;0.90;;;15.70;99.90;;;;;;5026728;28;20029;-76
2021/06/26 04:07:39;;;;;;;2.22;0.70;;;15.90;99.90;;;;;;5026608;28;20494;-74
2021/06/26 04:10:06;;;;;;;1.60;0.82;;;15.90;99.90;;;;;;5026015;28;20056;-74
2021/06/26 04:12:32;;;;;;;1.80;0.80;;;15.70;99.90;;;;;;5026899;28;20025;-74
2021/06/26 04:14:58;;;;;;;3.83;1.13;;;15.50;99.90;;;;;;5026308;28;20556;-74
2021/06/26 04:17:24;;;;;;;1.55;0.82;;;15.60;99.90;;;;;;5025882;28;20026;-74
2021/06/26 04:19:49;;;;;;;3.38;1.40;;;15.40;99.90;;;;;;5026118;28;20132;-74
2021/06/26 04:22:15;;;;;;;3.58;0.90;;;15.50;99.90;;;;;;5026256;28;20163;-74
2021/06/26 04:24:41;;;;;;;5.53;0.90;;;15.50;99.90;;;;;;5025986;28;20041;-77
2021/06/26 04:27:07;;;;;;;1.65;0.90;;;15.50;99.90;;;;;;5025953;28;20041;-75
2021/06/26 04:29:33;;;;;;;2.92;1.00;;;15.40;99.90;;;;;;5025272;28;20160;-74
2021/06/26 04:31:59;;;;;;;2.50;0.80;;;15.60;99.90;;;;;;5025853;28;20111;-74
2021/06/26 04:34:25;;;;;;;5.25;0.93;;;15.70;99.90;;;;;;5025511;28;20095;-74
2021/06/26 04:36:51;;;;;;;1.30;0.70;;;15.80;99.90;;;;;;5025216;28;20073;-75
2021/06/26 04:39:17;;;;;;;3.05;0.70;;;15.70;99.90;;;;;;5025809;28;20030;-74
2021/06/26 04:41:43;;;;;;;5.13;1.55;;;15.70;99.90;;;;;;5025338;28;20529;-77
2021/06/26 04:44:09;;;;;;;2.42;0.90;;;15.80;99.90;;;;;;5025703;28;20026;-75
2021/06/26 04:46:36;;;;;;;1.60;0.70;;;16.00;99.90;;;;;;5025433;28;20060;-74
2021/06/26 04:49:02;;;;;;;1.67;0.68;;;16.20;99.90;;;;;;5024166;28;20061;-75
2021/06/26 04:51:28;;;;;;;1.65;0.93;;;16.10;99.90;;;;;;5025138;28;20080;-74
2021/06/26 04:53:53;;;;;;;1.60;1.00;;;16.10;99.90;;;;;;5026009;28;20026;-75
2021/06/26 04:56:19;;;;;;;1.65;0.93;;;16.10;99.90;;;;;;5025554;28;20108;-74
2021/06/26 04:58:45;;;;;;;1.70;0.80;;;16.10;99.90;;;;;;5024882;28;20026;-75
2021/06/26 05:01:11;;;;;;;4.20;0.82;;;15.80;99.90;;;;;;5024720;28;20013;-75
2021/06/26 05:03:39;;;;;;;3.55;1.13;;;15.90;99.90;;;;;;5025416;28;20620;-76
2021/06/26 05:06:05;;;;;;;2.50;1.02;;;15.90;99.90;;;;;;5025639;28;20017;-74
2021/06/26 05:08:31;;;;;;;1.85;0.80;;;16.10;99.90;;;;;;5025268;28;20021;-74
2021/06/26 05:10:57;;;;;;;2.10;0.80;;;16.20;99.90;;;;;;5024354;28;20484;-74
2021/06/26 05:13:23;;;;;;;2.25;0.95;;;16.20;99.90;;;;;;5023474;28;20052;-74
2021/06/26 05:15:48;;;;;;;3.90;1.17;;;16.10;99.90;;;;;;5025041;28;20638;-74
2021/06/26 05:18:14;;;;;;;2.63;0.68;;;16.00;99.90;;;;;;5025104;28;20044;-74
2021/06/26 05:20:41;;;;;;;2.55;1.42;;;15.80;99.90;;;;;;5024952;28;20495;-75
2021/06/26 05:23:17;;;;;;;1.98;0.93;;;15.90;99.90;;;;;;5024840;28;20038;-75
2021/06/26 05:25:44;;;;;;;3.47;1.00;;;15.70;99.90;;;;;;5024041;28;20036;-75
2021/06/26 05:28:10;;;;;;;1.50;0.60;;;15.80;99.90;;;;;;5024734;28;20025;-74
2021/06/26 05:30:37;;;;;;;1.15;0.60;;;15.90;99.90;;;;;;5026619;28;20046;-76
2021/06/26 05:33:03;;;;;;;1.45;0.85;;;16.00;99.90;;;;;;5027195;28;20151;-74
2021/06/26 05:35:29;;;;;;;1.90;0.70;;;15.90;99.90;;;;;;5025570;28;20570;-74
2021/06/26 05:37:54;;;;;;;1.40;0.75;;;16.00;99.90;;;;;;5024382;28;20147;-74
2021/06/26 05:40:20;;;;;;;2.35;1.30;;;16.10;99.90;;;;;;5020107;28;20065;-75
2021/06/26 05:42:46;;;;;;;1.95;0.90;;;16.20;99.90;;;;;;5031062;28;20072;-74
2021/06/26 05:45:12;;;;;;;2.60;0.85;;;16.10;99.90;;;;;;5024790;28;20439;-74
2021/06/26 05:47:37;;;;;;;3.35;1.30;;;16.10;99.90;;;;;;5018634;28;20479;-77
2021/06/26 05:50:04;;;;;;;2.20;0.70;;;16.10;99.90;;;;;;5031349;28;20061;-75
2021/06/26 05:52:29;;;;;;;2.97;0.77;;;16.20;99.90;;;;;;5024802;28;20361;-74
2021/06/26 05:54:55;;;;;;;1.70;0.85;;;16.40;99.90;;;;;;5028619;28;20040;-74
2021/06/26 05:57:22;;;;;;;2.17;0.70;;;16.70;99.90;;;;;;5034649;28;20426;-75
2021/06/26 05:59:48;;;;;;;1.42;0.60;;;16.90;99.90;;;;;;5024175;28;20036;-74
2021/06/26 06:02:13;;;;;;;4.00;1.05;;;17.10;99.90;;;;;;5018255;28;20034;-74
2021/06/26 06:04:40;;;;;;;1.17;0.65;;;17.30;99.60;;;;;;5007331;28;20022;-74
2021/06/26 06:07:07;;;;;;;1.38;0.70;;;17.40;98.60;;;;;;5039324;28;20022;-76
2021/06/26 06:09:33;;;;;;;1.40;0.70;;;17.50;98.70;;;;;;5024288;28;20490;-75
2021/06/26 06:11:59;;;;;;;3.08;0.90;;;17.50;98.30;;;;;;5043059;28;20045;-75
2021/06/26 06:14:24;;;;;;;1.73;0.70;;;17.60;98.30;;;;;;5045584;28;20044;-75
2021/06/26 06:16:50;;;;;;;3.10;0.88;;;17.70;98.20;;;;;;5028720;28;20471;-76
2021/06/26 06:19:16;;;;;;;1.25;0.73;;;17.70;97.80;;;;;;5034153;28;20448;-75
2021/06/26 06:21:42;;;;;;;2.45;1.10;;;17.70;97.70;;;;;;5035115;28;20059;-77
2021/06/26 06:24:07;;;;;;;2.70;1.23;;;17.80;97.30;;;;;;5030178;28;20092;-75
2021/06/26 06:26:33;;;;;;;2.70;0.90;;;17.80;97.10;;;;;;5046585;28;20422;-75
2021/06/26 06:28:59;;;;;;;1.73;0.80;;;17.90;97.10;;;;;;5042798;28;20036;-76
2021/06/26 06:31:25;;;;;;;1.55;0.70;;;18.00;97.10;;;;;;5039060;28;20045;-75
2021/06/26 06:33:50;;;;;;;1.42;0.73;;;18.00;97.10;;;;;;5028355;28;20022;-74
2021/06/26 06:36:16;;;;;;;1.15;0.65;;;18.10;97.10;;;;;;5026105;28;20054;-75
2021/06/26 06:38:42;;;;;;;2.70;0.90;;;18.10;96.80;;;;;;5017629;28;20390;-75
2021/06/26 06:41:07;;;;;;;2.45;1.10;;;18.10;96.70;;;;;;5023550;28;20036;-74
2021/06/26 06:43:34;;;;;;;1.95;0.95;;;18.10;96.70;;;;;;5032616;28;20040;-75
2021/06/26 06:46:03;;;;;;;1.80;0.70;;;18.10;96.80;;;;;;5044761;28;20066;-76
2021/06/26 06:48:29;;;;;;;1.80;0.80;;;18.20;96.80;;;;;;5027385;28;20073;-75
2021/06/26 06:50:55;;;;;;;1.88;0.73;;;18.30;96.80;;;;;;5024898;28;20438;-75
2021/06/26 06:53:20;;;;;;;1.13;0.70;;;18.30;96.70;;;;;;5015235;28;20026;-76
2021/06/26 06:55:50;;;;;;;2.55;1.17;;;18.40;96.80;;;;;;5024028;28;20684;-75
2021/06/26 06:58:20;;;;;;;1.65;0.80;;;18.50;96.30;;;;;;5028177;28;20112;-75
2021/06/26 07:00:48;;;;;;;1.75;0.73;;;18.60;96.10;;;;;;5026807;28;20056;-75
2021/06/26 07:03:13;;;;;;;1.60;0.90;;;18.90;95.80;;;;;;5028003;28;20958;-76
2021/06/26 07:05:40;;;;;;;2.47;0.95;;;19.10;95.70;;;;;;5026623;28;20037;-75
2021/06/26 07:08:05;;;;;;;3.90;0.80;;;19.30;95.60;;;;;;5023307;28;20115;-75
2021/06/26 07:10:31;;;;;;;1.85;0.80;;;19.60;95.40;;;;;;5019819;28;20179;-76
2021/06/26 07:12:57;;;;;;;3.30;0.80;;;19.90;94.70;;;;;;5026861;28;20040;-74
2021/06/26 07:15:23;;;;;;;1.45;0.63;;;19.90;94.60;;;;;;5025947;28;20029;-76
2021/06/26 07:17:49;;;;;;;5.07;1.20;;;20.40;94.10;;;;;;5028016;28;20044;-76
2021/06/26 07:20:15;;;;;;;3.30;0.80;;;20.70;93.90;;;;;;5019972;28;20389;-75
2021/06/26 07:22:40;;;;;;;4.38;0.93;;;21.10;93.80;;;;;;5009314;28;20033;-74
2021/06/26 07:25:07;;;;;;;2.65;1.02;;;21.40;93.20;;;;;;5021988;28;20021;-74
2021/06/26 07:27:32;;;;;;;7.50;1.40;;;21.50;93.70;;;;;;5027086;28;20029;-75
2021/06/26 07:29:58;;;;;;;10.00;1.67;;;21.70;93.50;;;;;;5025657;28;20037;-75
2021/06/26 07:32:24;;;;;;;11.55;0.98;;;21.90;93.30;;;;;;5026792;28;20387;-74
2021/06/26 07:34:50;;;;;;;6.70;0.80;;;22.50;92.70;;;;;;5025868;28;20475;-74
2021/06/26 07:37:16;;;;;;;3.97;0.60;;;23.40;92.30;;;;;;5025897;28;20547;-74
2021/06/26 07:39:41;;;;;;;0.98;0.52;;;24.00;90.10;;;;;;5026602;28;20036;-76
2021/06/26 07:42:07;;;;;;;1.10;0.70;;;24.60;87.10;;;;;;5026612;28;20128;-74
2021/06/26 07:44:33;;;;;;;1.70;0.75;;;24.70;85.50;;;;;;5025794;28;20038;-74
2021/06/26 07:46:59;;;;;;;7.45;1.10;;;25.40;85.10;;;;;;5026601;28;20112;-74
2021/06/26 07:49:24;;;;;;;9.38;1.08;;;25.00;85.00;;;;;;5042088;28;20099;-74
2021/06/26 07:51:50;;;;;;;4.13;0.70;;;25.50;83.50;;;;;;5026339;28;20044;-74
2021/06/26 07:54:17;;;;;;;3.40;0.85;;;24.60;84.40;;;;;;5026049;28;20512;-75
2021/06/26 07:56:44;;;;;;;1.35;0.75;;;24.90;84.00;;;;;;5024623;28;20033;-74
2021/06/26 07:59:09;;;;;;;2.03;0.70;;;24.60;85.40;;;;;;5026359;28;20060;-75
2021/06/26 08:01:35;;;;;;;1.90;0.65;;;24.70;86.60;;;;;;5026676;28;20068;-75
2021/06/26 08:04:02;;;;;;;2.97;0.73;;;24.90;86.30;;;;;;5026049;28;20033;-75
2021/06/26 08:06:27;;;;;;;2.28;0.80;;;24.50;87.30;;;;;;5025765;28;20032;-75
2021/06/26 08:08:53;;;;;;;1.38;0.60;;;24.30;86.40;;;;;;5026276;28;20033;-76
2021/06/26 08:11:20;;;;;;;2.80;1.02;;;24.40;87.80;;;;;;5025943;28;20502;-75
2021/06/26 08:13:47;;;;;;;2.72;0.77;;;24.30;86.80;;;;;;5026598;28;20502;-76
2021/06/26 08:16:12;;;;;;;3.00;0.73;;;24.60;85.80;;;;;;5026082;28;20038;-77
2021/06/26 08:18:38;;;;;;;2.20;0.93;;;24.60;85.20;;;;;;5024398;28;20262;-82
2021/06/26 08:21:04;;;;;;;5.80;0.93;;;24.20;85.50;;;;;;5026140;28;20079;-86
2021/06/26 08:23:30;;;;;;;2.90;1.20;;;23.80;86.40;;;;;;5026530;28;20110;-77
2021/06/26 08:25:56;;;;;;;6.40;1.23;;;24.00;87.50;;;;;;5027446;28;20606;-77
2021/06/26 08:28:22;;;;;;;15.45;1.65;;;24.40;87.00;;;;;;5027830;28;20671;-79
2021/06/26 08:30:47;;;;;;;2.08;0.90;;;24.30;87.00;;;;;;5027269;28;20029;-77
2021/06/26 08:33:13;;;;;;;3.55;0.80;;;23.60;86.60;;;;;;5026818;28;20030;-78
2021/06/26 08:35:39;;;;;;;1.05;0.73;;;24.00;87.40;;;;;;5026329;28;20071;-77
2021/06/26 08:38:04;;;;;;;12.18;1.85;;;24.30;87.80;;;;;;5027361;28;20029;-76
2021/06/26 08:40:31;;;;;;;1.05;0.60;;;24.40;85.60;;;;;;5027714;28;20030;-83
2021/06/26 08:42:57;;;;;;;2.92;0.82;;;24.40;85.50;;;;;;5027358;28;20056;-77
2021/06/26 08:45:23;;;;;;;4.10;1.20;;;24.70;85.70;;;;;;5027589;28;20025;-76
2021/06/26 08:47:54;;;;;;;3.85;1.00;;;24.70;85.40;;;;;;5027401;28;20083;-76
2021/06/26 08:50:22;;;;;;;1.52;0.85;;;24.90;85.60;;;;;;5027094;28;20029;-77
2021/06/26 08:52:48;;;;;;;1.63;0.80;;;24.90;85.10;;;;;;5026742;28;20025;-77
2021/06/26 08:55:14;;;;;;;2.38;0.85;;;24.60;87.00;;;;;;5027353;28;20098;-77
2021/06/26 08:57:41;;;;;;;2.92;1.02;;;25.00;88.00;;;;;;5027200;28;20025;-77
2021/06/26 09:00:12;;;;;;;1.80;0.80;;;25.00;85.30;;;;;;5027159;28;20085;-84
2021/06/26 09:02:38;;;;;;;1.70;0.85;;;25.10;87.30;;;;;;5027029;28;20399;-76
2021/06/26 09:05:05;;;;;;;2.75;0.80;;;24.90;85.80;;;;;;5027043;28;20017;-76
2021/06/26 09:07:32;;;;;;;4.35;1.23;;;24.80;86.50;;;;;;5026773;28;20030;-76
2021/06/26 09:09:58;;;;;;;1.00;0.68;;;25.10;86.00;;;;;;5026629;28;20017;-77
2021/06/26 09:12:26;;;;;;;3.35;0.77;;;25.30;87.20;;;;;;5026658;28;20033;-79
2021/06/26 09:14:53;;;;;;;3.60;0.90;;;25.50;86.00;;;;;;5026988;28;20033;-77
2021/06/26 09:17:29;;;;;;;4.63;0.80;;;25.50;84.90;;;;;;5026570;28;20021;-77
2021/06/26 09:19:58;;;;;;;1.70;0.77;;;25.50;85.60;;;;;;5026789;28;20034;-77
2021/06/26 09:22:42;;;;;;;2.47;0.57;;;25.60;84.20;;;;;;5026376;28;20525;-77
2021/06/26 09:25:31;;;;;;;2.15;0.73;;;25.90;85.10;;;;;;5026750;28;20439;-81
2021/06/26 09:28:03;;;;;;;2.38;0.60;;;25.70;83.10;;;;;;5026185;28;20029;-82
2021/06/26 09:30:37;;;;;;;3.03;0.70;;;26.20;83.00;;;;;;5025071;28;20044;-77
2021/06/26 09:33:09;;;;;;;1.60;0.63;;;26.70;83.10;;;;;;5026416;28;20076;-77
2021/06/26 09:35:35;;;;;;;1.45;0.73;;;26.90;82.30;;;;;;5026630;28;20046;-77
2021/06/26 09:38:04;;;;;;;15.95;1.52;;;26.30;82.00;;;;;;5026317;28;20379;-77
2021/06/26 09:40:30;;;;;;;0.77;0.52;;;26.30;83.60;;;;;;5026545;28;20553;-77
2021/06/26 09:42:56;;;;;;;2.03;0.90;;;25.80;82.60;;;;;;5026066;28;20037;-77
2021/06/26 09:45:21;;;;;;;1.85;0.57;;;25.70;82.90;;;;;;5026055;28;20039;-77
2021/06/26 09:47:47;;;;;;;2.85;0.98;;;26.00;82.50;;;;;;5025335;28;20021;-77
2021/06/26 09:50:24;;;;;;;4.80;0.88;;;26.00;81.70;;;;;;5026088;28;20108;-77
2021/06/26 09:52:54;;;;;;;3.08;0.80;;;26.70;82.70;;;;;;5024803;28;20395;-78
2021/06/26 09:55:22;;;;;;;1.98;1.05;;;26.60;81.50;;;;;;5026169;28;20026;-76
2021/06/26 09:57:49;;;;;;;4.47;0.75;;;26.20;81.70;;;;;;5024997;28;20065;-77
2021/06/26 10:00:17;;;;;;;1.25;0.60;;;26.00;81.90;;;;;;5026039;28;20045;-77
2021/06/26 10:02:44;;;;;;;1.58;0.60;;;26.20;81.50;;;;;;5025993;28;20034;-77
2021/06/26 10:05:11;;;;;;;14.50;2.10;;;26.00;81.80;;;;;;5026007;28;20064;-77
2021/06/26 10:07:41;;;;;;;9.25;1.35;;;26.40;84.80;;;;;;5026269;28;20018;-86
2021/06/26 10:10:10;;;;;;;9.15;1.30;;;27.10;83.30;;;;;;5026104;28;20468;-81
2021/06/26 10:12:37;;;;;;;2.80;0.70;;;27.30;81.70;;;;;;5026142;28;20079;-78
2021/06/26 10:15:05;;;;;;;14.95;1.70;;;27.80;81.40;;;;;;5026145;28;20113;-77
2021/06/26 10:17:30;;;;;;;7.13;1.50;;;27.60;80.20;;;;;;5025832;28;20021;-78
2021/06/26 10:19:56;;;;;;;2.05;0.50;;;27.80;81.10;;;;;;5025997;28;20044;-77
2021/06/26 10:22:23;;;;;;;1.60;0.60;;;27.30;79.40;;;;;;5025856;28;20108;-77
2021/06/26 10:24:49;;;;;;;2.08;0.75;;;27.80;80.10;;;;;;5025842;28;20025;-84
2021/06/26 10:27:17;;;;;;;6.43;0.85;;;27.90;78.90;;;;;;5025798;28;20036;-77
2021/06/26 10:29:42;;;;;;;3.75;0.88;;;27.90;78.10;;;;;;5026348;28;20128;-77
2021/06/26 10:32:16;;;;;;;1.23;0.70;;;28.10;79.10;;;;;;5025683;28;20120;-77
2021/06/26 10:34:42;;;;;;;;;;;28.10;80.10;;;;;;5025658;28;20099;-79
2021/06/26 10:37:20;;;;;;;1.75;0.68;;;27.70;78.20;;;;;;5025798;28;19913;-81
2021/06/26 10:39:47;;;;;;;2.40;0.70;;;27.50;79.20;;;;;;5025820;28;20087;-84
2021/06/26 10:42:17;;;;;;;1.60;0.70;;;27.70;79.20;;;;;;5025462;28;20383;-77
2021/06/26 10:44:45;;;;;;;2.78;0.50;;;27.60;79.10;;;;;;5025570;28;20021;-86
2021/06/26 10:47:11;;;;;;;1.50;0.70;;;27.80;79.10;;;;;;5025741;28;20033;-78
2021/06/26 10:49:38;;;;;;;3.33;0.75;;;28.00;79.10;;;;;;5025797;28;20022;-77
2021/06/26 10:52:15;;;;;;;2.70;0.80;;;27.60;80.40;;;;;;5025648;28;20030;-84
2021/06/26 10:54:51;;;;;;;2.58;0.75;;;27.90;77.30;;;;;;5025740;28;20041;-76
2021/06/26 10:57:16;;;;;;;1.75;0.60;;;28.00;77.50;;;;;;5025954;28;20091;-77
2021/06/26 10:59:56;;;;;;;1.48;0.63;;;28.10;77.90;;;;;;5029563;28;20018;-77
2021/06/26 11:02:22;;;;;;;1.52;0.80;;;28.70;79.50;;;;;;5029255;28;20048;-85
2021/06/26 11:04:48;;;;;;;4.40;0.80;;;28.80;78.10;;;;;;5029772;28;20029;-77
2021/06/26 11:07:16;;;;;;;2.88;0.80;;;29.20;80.40;;;;;;5028965;28;20018;-77
2021/06/26 11:09:44;;;;;;;1.92;0.70;;;29.00;78.30;;;;;;5028377;28;20049;-78
2021/06/26 11:12:12;;;;;;;1.77;0.63;;;29.00;79.30;;;;;;5027866;28;20026;-84
2021/06/26 11:14:57;;;;;;;1.83;0.90;;;29.00;80.80;;;;;;5027942;28;20088;-79
2021/06/26 11:17:36;;;;;;;1.85;0.95;;;28.80;79.00;;;;;;5027598;28;20030;-78
2021/06/26 11:20:04;;;;;;;2.17;1.08;;;28.80;78.70;;;;;;5028081;28;20033;-79
2021/06/26 11:22:30;;;;;;;2.63;0.90;;;28.90;80.90;;;;;;5027700;28;20041;-78
2021/06/26 11:24:55;;;;;;;5.55;1.00;;;29.20;80.90;;;;;;5027952;28;20084;-78
2021/06/26 11:27:21;;;;;;;4.40;1.02;;;29.40;80.30;;;;;;5028028;28;20029;-81
2021/06/26 11:29:49;;;;;;;8.93;1.73;;;29.80;79.30;;;;;;5028170;28;20109;-78
2021/06/26 11:32:22;;;;;;;4.07;1.17;;;29.90;78.10;;;;;;5027729;28;20026;-77
2021/06/26 11:34:57;;;;;;;7.88;1.05;;;29.60;77.00;;;;;;5027322;28;20025;-78
2021/06/26 11:37:37;;;;;;;3.22;1.23;;;29.40;77.00;;;;;;5027849;28;20095;-77
2021/06/26 11:40:24;;;;;;;5.82;1.58;;;29.60;78.10;;;;;;5027826;28;20036;-79
2021/06/26 11:42:54;;;;;;;4.07;1.13;;;29.80;76.30;;;;;;5028887;28;20036;-77
2021/06/26 11:45:31;;;;;;;3.20;0.93;;;29.70;76.30;;;;;;5028545;28;20689;-77
2021/06/26 11:48:26;;;;;;;4.35;1.05;;;29.80;76.90;;;;;;5028545;28;20024;-78
2021/06/26 11:50:56;;;;;;;3.30;1.00;;;29.70;76.10;;;;;;5028066;28;20052;-81
2021/06/26 11:53:26;;;;;;;2.15;0.90;;;29.80;75.60;;;;;;5027188;28;20029;-78
2021/06/26 11:56:00;;;;;;;8.80;1.25;;;30.10;75.80;;;;;;5027072;28;20352;-77
2021/06/26 11:58:45;;;;;;;3.63;1.00;;;30.10;76.70;;;;;;5028291;28;20022;-83
2021/06/26 12:01:18;;;;;;;2.85;1.45;;;29.90;75.00;;;;;;5028028;28;20064;-78
2021/06/26 12:03:44;;;;;;;5.15;1.85;;;30.00;75.50;;;;;;5028249;28;20188;-77
2021/06/26 12:06:15;;;;;;;4.97;1.10;;;30.00;76.70;;;;;;5027781;28;20559;-77
2021/06/26 12:09:02;;;;;;;9.02;1.10;;;29.90;75.90;;;;;;5027764;28;20057;-80
2021/06/26 12:11:38;;;;;;;3.05;0.90;;;30.40;76.60;;;;;;5028026;28;20102;-77
2021/06/26 12:14:05;;;;;;;3.90;1.30;;;30.30;76.00;;;;;;5027780;28;20091;-81
2021/06/26 12:16:36;;;;;;;5.35;1.50;;;30.50;75.50;;;;;;5027809;28;20501;-78
2021/06/26 12:19:07;;;;;;;2.53;1.10;;;30.40;75.70;;;;;;5027268;28;20525;-77
2021/06/26 12:21:41;;;;;;;2.92;1.33;;;30.50;76.10;;;;;;5028025;28;20021;-77
2021/06/26 12:24:07;;;;;;;5.72;1.08;;;30.60;74.50;;;;;;5028108;28;20091;-78
2021/06/26 12:26:33;;;;;;;3.60;1.10;;;30.70;75.80;;;;;;5028102;28;20033;-77
2021/06/26 12:28:59;;;;;;;2.45;1.35;;;30.80;72.90;;;;;;5027607;28;20179;-78
2021/06/26 12:31:25;;;;;;;4.25;0.80;;;30.90;74.10;;;;;;5027818;28;20037;-79
2021/06/26 12:33:59;;;;;;;4.18;1.20;;;31.10;72.80;;;;;;5027636;28;20029;-78
2021/06/26 12:36:25;;;;;;;3.15;0.93;;;30.40;72.90;;;;;;5026403;28;20482;-78
2021/06/26 12:38:50;;;;;;;2.55;0.77;;;30.60;73.10;;;;;;5027624;28;20013;-78
2021/06/26 12:41:21;;;;;;;1.92;0.93;;;30.80;73.30;;;;;;5027397;28;20090;-77
2021/06/26 12:43:47;;;;;;;3.90;1.08;;;31.10;72.60;;;;;;5027533;28;20439;-78
2021/06/26 12:46:14;;;;;;;3.45;1.33;;;31.00;72.40;;;;;;5027212;28;20040;-79
2021/06/26 12:48:42;;;;;;;14.45;1.60;;;30.70;71.80;;;;;;5027501;28;20074;-77